sensor_id;sensor_type;location;lat;lon;timestamp;pressure;altitude;pressure_sealevel;temperature;humidity
58690;BME280;44470;53.206;-6.106;2023-05-19T00:01:11;102807.97;;;19.69;62.57
58690;BME280;44470;53.206;-6.106;2023-05-19T00:07:30;102799.84;;;19.61;62.19
58690;BME280;44470;53.206;-6.106;2023-05-19T00:09:56;102809.69;;;19.64;62.47
58690;BME280;44470;53.206;-6.106;2023-05-19T00:12:23;102816.84;;;19.68;62.50
58690;BME280;44470;53.206;-6.106;2023-05-19T00:14:50;102812.41;;;19.68;62.31
58690;BME280;44470;53.206;-6.106;2023-05-19T00:17:16;102798.91;;;19.60;62.57
58690;BME280;44470;53.206;-6.106;2023-05-19T00:19:45;102819.53;;;19.69;62.70
58690;BME280;44470;53.206;-6.106;2023-05-19T00:22:12;102823.09;;;19.68;62.39
58690;BME280;44470;53.206;-6.106;2023-05-19T00:24:38;102815.03;;;19.64;62.42
58690;BME280;44470;53.206;-6.106;2023-05-19T00:27:05;102822.19;;;19.68;62.35
58690;BME280;44470;53.206;-6.106;2023-05-19T00:29:31;102829.34;;;19.69;62.68
58690;BME280;44470;53.206;-6.106;2023-05-19T00:31:56;102824.00;;;19.69;62.56
58690;BME280;44470;53.206;-6.106;2023-05-19T00:34:22;102804.25;;;19.60;62.58
58690;BME280;44470;53.206;-6.106;2023-05-19T00:36:52;102820.28;;;19.60;62.62
58690;BME280;44470;53.206;-6.106;2023-05-19T00:39:20;102825.78;;;19.70;62.63
58690;BME280;44470;53.206;-6.106;2023-05-19T00:41:47;102813.22;;;19.63;62.52
58690;BME280;44470;53.206;-6.106;2023-05-19T00:44:13;102817.63;;;19.60;62.73
58690;BME280;44470;53.206;-6.106;2023-05-19T00:46:38;102826.66;;;19.69;62.47
58690;BME280;44470;53.206;-6.106;2023-05-19T00:49:06;102832.91;;;19.69;62.29
58690;BME280;44470;53.206;-6.106;2023-05-19T00:51:38;102824.88;;;19.68;62.54
58690;BME280;44470;53.206;-6.106;2023-05-19T00:54:05;102834.66;;;19.67;62.58
58690;BME280;44470;53.206;-6.106;2023-05-19T00:56:31;102822.97;;;19.60;62.65
58690;BME280;44470;53.206;-6.106;2023-05-19T00:59:00;102848.91;;;19.68;62.38
58690;BME280;44470;53.206;-6.106;2023-05-19T01:01:26;102856.94;;;19.69;62.68
58690;BME280;44470;53.206;-6.106;2023-05-19T01:03:52;102847.13;;;19.67;62.33
58690;BME280;44470;53.206;-6.106;2023-05-19T01:06:17;102843.44;;;19.61;62.85
58690;BME280;44470;53.206;-6.106;2023-05-19T01:08:43;102848.91;;;19.68;62.28
58690;BME280;44470;53.206;-6.106;2023-05-19T01:11:11;102837.19;;;19.59;62.81
58690;BME280;44470;53.206;-6.106;2023-05-19T01:13:37;102855.13;;;19.67;62.37
58690;BME280;44470;53.206;-6.106;2023-05-19T01:22:05;102864.06;;;19.69;62.98
58690;BME280;44470;53.206;-6.106;2023-05-19T01:32:56;102877.38;;;19.66;62.68
58690;BME280;44470;53.206;-6.106;2023-05-19T01:35:24;102873.84;;;19.67;62.68
58690;BME280;44470;53.206;-6.106;2023-05-19T01:37:54;102873.84;;;19.67;62.77
58690;BME280;44470;53.206;-6.106;2023-05-19T01:40:21;102864.81;;;19.61;62.63
58690;BME280;44470;53.206;-6.106;2023-05-19T01:42:53;102865.81;;;19.68;62.51
58690;BME280;44470;53.206;-6.106;2023-05-19T01:45:21;102839.94;;;19.63;62.82
58690;BME280;44470;53.206;-6.106;2023-05-19T01:47:52;102833.72;;;19.65;62.42
58690;BME280;44470;53.206;-6.106;2023-05-19T01:50:20;102839.97;;;19.66;62.42
58690;BME280;44470;53.206;-6.106;2023-05-19T01:52:46;102841.78;;;19.67;62.57
58690;BME280;44470;53.206;-6.106;2023-05-19T01:55:13;102833.75;;;19.67;62.50
58690;BME280;44470;53.206;-6.106;2023-05-19T02:06:21;102842.66;;;19.67;62.40
58690;BME280;44470;53.206;-6.106;2023-05-19T02:09:24;102841.78;;;19.67;62.29
58690;BME280;44470;53.206;-6.106;2023-05-19T02:11:55;102841.78;;;19.67;62.22
58690;BME280;44470;53.206;-6.106;2023-05-19T02:14:34;102848.88;;;19.66;62.33
58690;BME280;44470;53.206;-6.106;2023-05-19T02:17:04;102838.97;;;19.59;62.45
58690;BME280;44470;53.206;-6.106;2023-05-19T02:19:36;102849.66;;;19.60;62.57
58690;BME280;44470;53.206;-6.106;2023-05-19T02:22:03;102852.41;;;19.64;62.65
58690;BME280;44470;53.206;-6.106;2023-05-19T02:24:29;102839.91;;;19.61;62.23
58690;BME280;44470;53.206;-6.106;2023-05-19T02:26:57;102843.41;;;19.58;61.92
58690;BME280;44470;53.206;-6.106;2023-05-19T02:29:23;102836.28;;;19.57;62.21
58690;BME280;44470;53.206;-6.106;2023-05-19T02:31:49;102851.56;;;19.66;62.34
58690;BME280;44470;53.206;-6.106;2023-05-19T02:34:15;102855.13;;;19.68;62.40
58690;BME280;44470;53.206;-6.106;2023-05-19T02:36:41;102847.03;;;19.62;62.39
58690;BME280;44470;53.206;-6.106;2023-05-19T02:39:09;102863.16;;;19.67;62.24
58690;BME280;44470;53.206;-6.106;2023-05-19T02:41:39;102856.00;;;19.66;61.90
58690;BME280;44470;53.206;-6.106;2023-05-19T02:44:05;102870.25;;;19.66;61.98
58690;BME280;44470;53.206;-6.106;2023-05-19T02:46:32;102875.63;;;19.68;62.02
58690;BME280;44470;53.206;-6.106;2023-05-19T02:48:58;102876.50;;;19.67;61.76
58690;BME280;44470;53.206;-6.106;2023-05-19T02:51:24;102872.03;;;19.66;61.74
58690;BME280;44470;53.206;-6.106;2023-05-19T02:53:49;102874.72;;;19.67;61.70
58690;BME280;44470;53.206;-6.106;2023-05-19T02:56:15;102851.53;;;19.65;62.02
58690;BME280;44470;53.206;-6.106;2023-05-19T02:58:41;102857.69;;;19.60;61.72
58690;BME280;44470;53.206;-6.106;2023-05-19T03:01:08;102868.44;;;19.64;62.00
58690;BME280;44470;53.206;-6.106;2023-05-19T03:03:34;102869.38;;;19.66;62.07
58690;BME280;44470;53.206;-6.106;2023-05-19T03:06:00;102886.28;;;19.66;61.90
58690;BME280;44470;53.206;-6.106;2023-05-19T03:08:26;102884.47;;;19.64;61.43
58690;BME280;44470;53.206;-6.106;2023-05-19T03:10:52;102889.81;;;19.65;61.74
58690;BME280;44470;53.206;-6.106;2023-05-19T03:13:18;102871.88;;;19.56;61.97
58690;BME280;44470;53.206;-6.106;2023-05-19T03:15:43;102884.53;;;19.67;61.66
58690;BME280;44470;53.206;-6.106;2023-05-19T03:18:09;102890.69;;;19.64;61.77
58690;BME280;44470;53.206;-6.106;2023-05-19T03:20:46;102888.94;;;19.66;61.62
58690;BME280;44470;53.206;-6.106;2023-05-19T03:23:11;102880.81;;;19.58;61.63
58690;BME280;44470;53.206;-6.106;2023-05-19T03:25:37;102880.94;;;19.65;61.68
58690;BME280;44470;53.206;-6.106;2023-05-19T03:28:03;102883.59;;;19.65;61.76
58690;BME280;44470;53.206;-6.106;2023-05-19T03:30:29;102877.25;;;19.59;61.07
58690;BME280;44470;53.206;-6.106;2023-05-19T03:33:06;102893.31;;;19.61;58.66
58690;BME280;44470;53.206;-6.106;2023-05-19T03:35:33;102887.84;;;19.53;59.70
58690;BME280;44470;53.206;-6.106;2023-05-19T03:37:59;102887.81;;;19.50;60.35
58690;BME280;44470;53.206;-6.106;2023-05-19T03:40:25;102891.44;;;19.54;60.68
58690;BME280;44470;53.206;-6.106;2023-05-19T03:42:56;102886.06;;;19.52;60.17
58690;BME280;44470;53.206;-6.106;2023-05-19T03:45:22;102882.50;;;19.53;60.09
58690;BME280;44470;53.206;-6.106;2023-05-19T03:47:50;102897.75;;;19.59;60.29
58690;BME280;44470;53.206;-6.106;2023-05-19T03:50:51;102900.38;;;19.57;59.72
58690;BME280;44470;53.206;-6.106;2023-05-19T03:53:24;102896.84;;;19.58;59.95
58690;BME280;44470;53.206;-6.106;2023-05-19T03:55:56;102901.28;;;19.59;59.82
58690;BME280;44470;53.206;-6.106;2023-05-19T03:58:22;102893.25;;;19.56;59.87
58690;BME280;44470;53.206;-6.106;2023-05-19T04:00:52;102910.22;;;19.61;60.09
58690;BME280;44470;53.206;-6.106;2023-05-19T04:03:18;102905.78;;;19.60;60.18
58690;BME280;44470;53.206;-6.106;2023-05-19T04:05:44;102899.50;;;19.58;60.08
58690;BME280;44470;53.206;-6.106;2023-05-19T04:08:09;102905.81;;;19.62;60.76
58690;BME280;44470;53.206;-6.106;2023-05-19T04:10:36;102893.25;;;19.56;60.26
58690;BME280;44470;53.206;-6.106;2023-05-19T04:13:02;102904.06;;;19.63;60.65
58690;BME280;44470;53.206;-6.106;2023-05-19T04:15:28;102895.00;;;19.54;60.74
58690;BME280;44470;53.206;-6.106;2023-05-19T04:17:54;102907.56;;;19.61;60.54
58690;BME280;44470;53.206;-6.106;2023-05-19T04:20:20;102913.81;;;19.62;60.27
58690;BME280;44470;53.206;-6.106;2023-05-19T04:22:46;102920.06;;;19.63;61.03
58690;BME280;44470;53.206;-6.106;2023-05-19T04:25:11;102927.19;;;19.62;60.36
58690;BME280;44470;53.206;-6.106;2023-05-19T04:27:38;102920.00;;;19.59;60.75
58690;BME280;44470;53.206;-6.106;2023-05-19T04:30:05;102928.09;;;19.63;60.64
58690;BME280;44470;53.206;-6.106;2023-05-19T04:32:31;102936.94;;;19.61;60.83
58690;BME280;44470;53.206;-6.106;2023-05-19T04:34:57;102927.03;;;19.54;60.89
58690;BME280;44470;53.206;-6.106;2023-05-19T04:37:25;102946.78;;;19.63;60.92
58690;BME280;44470;53.206;-6.106;2023-05-19T04:39:51;102950.31;;;19.61;60.59
58690;BME280;44470;53.206;-6.106;2023-05-19T04:42:18;102946.75;;;19.61;60.63
58690;BME280;44470;53.206;-6.106;2023-05-19T04:44:47;102954.81;;;19.63;60.76
58690;BME280;44470;53.206;-6.106;2023-05-19T04:47:14;102934.19;;;19.55;60.58
58690;BME280;44470;53.206;-6.106;2023-05-19T04:49:39;102949.38;;;19.58;60.69
58690;BME280;44470;53.206;-6.106;2023-05-19T04:52:06;102961.91;;;19.62;61.02
58690;BME280;44470;53.206;-6.106;2023-05-19T04:54:33;102959.19;;;19.60;60.92
58690;BME280;44470;53.206;-6.106;2023-05-19T04:57:02;102969.91;;;19.62;60.81
58690;BME280;44470;53.206;-6.106;2023-05-19T04:59:30;102948.41;;;19.53;60.58
58690;BME280;44470;53.206;-6.106;2023-05-19T05:01:56;102955.53;;;19.55;60.74
58690;BME280;44470;53.206;-6.106;2023-05-19T05:04:23;102962.75;;;19.59;60.88
58690;BME280;44470;53.206;-6.106;2023-05-19T05:06:50;102974.34;;;19.61;60.85
58690;BME280;44470;53.206;-6.106;2023-05-19T05:09:17;102975.22;;;19.60;61.04
58690;BME280;44470;53.206;-6.106;2023-05-19T05:11:44;102970.78;;;19.61;60.62
58690;BME280;44470;53.206;-6.106;2023-05-19T05:14:10;102977.00;;;19.61;60.58
58690;BME280;44470;53.206;-6.106;2023-05-19T05:16:36;102981.47;;;19.61;60.62
58690;BME280;44470;53.206;-6.106;2023-05-19T05:19:03;102972.56;;;19.60;60.63
58690;BME280;44470;53.206;-6.106;2023-05-19T05:21:29;102973.47;;;19.61;60.89
58690;BME280;44470;53.206;-6.106;2023-05-19T05:23:57;102958.31;;;19.61;60.67
58690;BME280;44470;53.206;-6.106;2023-05-19T05:26:29;102966.34;;;19.61;60.95
58690;BME280;44470;53.206;-6.106;2023-05-19T05:28:55;102962.78;;;19.61;60.69
58690;BME280;44470;53.206;-6.106;2023-05-19T05:31:20;102955.53;;;19.55;60.43
58690;BME280;44470;53.206;-6.106;2023-05-19T05:33:46;102964.47;;;19.57;60.83
58690;BME280;44470;53.206;-6.106;2023-05-19T05:36:13;102969.88;;;19.60;60.61
58690;BME280;44470;53.206;-6.106;2023-05-19T05:38:43;102953.75;;;19.53;60.81
58690;BME280;44470;53.206;-6.106;2023-05-19T05:41:09;102966.28;;;19.58;60.93
58690;BME280;44470;53.206;-6.106;2023-05-19T05:43:36;102974.34;;;19.61;60.96
58690;BME280;44470;53.206;-6.106;2023-05-19T05:46:02;102948.34;;;19.51;60.62
58690;BME280;44470;53.206;-6.106;2023-05-19T05:48:28;102972.56;;;19.60;60.81
58690;BME280;44470;53.206;-6.106;2023-05-19T05:50:55;102977.00;;;19.61;60.80
58690;BME280;44470;53.206;-6.106;2023-05-19T05:53:24;102969.00;;;19.61;60.88
58690;BME280;44470;53.206;-6.106;2023-05-19T05:55:55;102976.97;;;19.58;60.54
58690;BME280;44470;53.206;-6.106;2023-05-19T05:58:26;102980.50;;;19.57;60.67
58690;BME280;44470;53.206;-6.106;2023-05-19T06:00:53;102981.44;;;19.58;60.70
58690;BME280;44470;53.206;-6.106;2023-05-19T06:03:22;102973.38;;;19.56;60.69
58690;BME280;44470;53.206;-6.106;2023-05-19T06:05:49;102978.75;;;19.59;60.61
58690;BME280;44470;53.206;-6.106;2023-05-19T06:08:14;102968.94;;;19.58;60.39
58690;BME280;44470;53.206;-6.106;2023-05-19T06:10:42;102967.16;;;19.57;60.51
58690;BME280;44470;53.206;-6.106;2023-05-19T06:13:09;102974.34;;;19.60;60.77
58690;BME280;44470;53.206;-6.106;2023-05-19T06:15:37;102970.75;;;19.59;60.61
58690;BME280;44470;53.206;-6.106;2023-05-19T06:18:14;102960.00;;;19.55;60.73
58690;BME280;44470;53.206;-6.106;2023-05-19T06:20:39;102959.13;;;19.57;60.56
58690;BME280;44470;53.206;-6.106;2023-05-19T06:23:05;102959.19;;;19.60;60.68
58690;BME280;44470;53.206;-6.106;2023-05-19T06:25:31;102940.34;;;19.51;60.74
58690;BME280;44470;53.206;-6.106;2023-05-19T06:27:56;102966.28;;;19.58;60.63
58690;BME280;44470;53.206;-6.106;2023-05-19T06:30:22;102958.28;;;19.58;60.98
58690;BME280;44470;53.206;-6.106;2023-05-19T06:32:57;102966.34;;;19.61;60.55
58690;BME280;44470;53.206;-6.106;2023-05-19T06:35:24;102961.81;;;19.57;60.42
58690;BME280;44470;53.206;-6.106;2023-05-19T06:37:49;102949.28;;;19.52;60.71
58690;BME280;44470;53.206;-6.106;2023-05-19T06:40:18;102966.28;;;19.58;60.47
58690;BME280;44470;53.206;-6.106;2023-05-19T06:42:44;102966.28;;;19.58;60.81
58690;BME280;44470;53.206;-6.106;2023-05-19T06:45:15;102964.47;;;19.57;60.52
58690;BME280;44470;53.206;-6.106;2023-05-19T06:47:40;102970.75;;;19.59;60.68
58690;BME280;44470;53.206;-6.106;2023-05-19T06:50:10;102974.28;;;19.58;60.63
58690;BME280;44470;53.206;-6.106;2023-05-19T06:52:38;102969.88;;;19.59;60.79
58690;BME280;44470;53.206;-6.106;2023-05-19T06:55:04;102960.00;;;19.56;60.94
58690;BME280;44470;53.206;-6.106;2023-05-19T06:57:31;102960.06;;;19.59;60.50
58690;BME280;44470;53.206;-6.106;2023-05-19T06:59:57;102969.88;;;19.60;60.81
58690;BME280;44470;53.206;-6.106;2023-05-19T07:02:23;102978.75;;;19.59;60.74
58690;BME280;44470;53.206;-6.106;2023-05-19T07:04:48;102972.56;;;19.60;60.72
58690;BME280;44470;53.206;-6.106;2023-05-19T07:07:20;102976.97;;;19.58;60.46
58690;BME280;44470;53.206;-6.106;2023-05-19T07:09:46;102977.00;;;19.60;60.69
58690;BME280;44470;53.206;-6.106;2023-05-19T07:12:12;102959.00;;;19.48;60.88
58690;BME280;44470;53.206;-6.106;2023-05-19T07:14:37;102970.75;;;19.58;60.61
58690;BME280;44470;53.206;-6.106;2023-05-19T07:17:04;102984.97;;;19.58;60.51
58690;BME280;44470;53.206;-6.106;2023-05-19T07:19:31;102988.53;;;19.57;60.61
58690;BME280;44470;53.206;-6.106;2023-05-19T07:21:57;102976.09;;;19.59;60.82
58690;BME280;44470;53.206;-6.106;2023-05-19T07:24:24;102984.88;;;19.52;60.75
58690;BME280;44470;53.206;-6.106;2023-05-19T07:26:49;103000.09;;;19.56;60.59
58690;BME280;44470;53.206;-6.106;2023-05-19T07:29:18;103003.69;;;19.58;60.68
58690;BME280;44470;53.206;-6.106;2023-05-19T07:31:43;103017.06;;;19.60;60.84
58690;BME280;44470;53.206;-6.106;2023-05-19T07:34:09;102996.53;;;19.57;60.36
58690;BME280;44470;53.206;-6.106;2023-05-19T07:36:35;103004.50;;;19.53;60.24
58690;BME280;44470;53.206;-6.106;2023-05-19T07:39:00;103007.16;;;19.54;60.12
58690;BME280;44470;53.206;-6.106;2023-05-19T07:41:27;103011.69;;;19.57;59.34
58690;BME280;44470;53.206;-6.106;2023-05-19T07:43:52;103020.56;;;19.57;59.45
58690;BME280;44470;53.206;-6.106;2023-05-19T07:46:18;103023.28;;;19.59;59.72
58690;BME280;44470;53.206;-6.106;2023-05-19T07:48:44;103030.34;;;19.55;59.54
58690;BME280;44470;53.206;-6.106;2023-05-19T07:51:11;103024.13;;;19.55;59.46
58690;BME280;44470;53.206;-6.106;2023-05-19T07:53:37;103021.44;;;19.56;58.80
58690;BME280;44470;53.206;-6.106;2023-05-19T07:56:02;103020.63;;;19.59;59.26
58690;BME280;44470;53.206;-6.106;2023-05-19T07:58:28;103018.81;;;19.58;59.43
58690;BME280;44470;53.206;-6.106;2023-05-19T08:00:57;103018.81;;;19.58;59.24
58690;BME280;44470;53.206;-6.106;2023-05-19T08:03:24;103024.19;;;19.59;58.96
58690;BME280;44470;53.206;-6.106;2023-05-19T08:05:49;103023.28;;;19.59;59.49
58690;BME280;44470;53.206;-6.106;2023-05-19T08:08:15;103026.78;;;19.56;59.88
58690;BME280;44470;53.206;-6.106;2023-05-19T08:10:41;103016.97;;;19.54;59.98
58690;BME280;44470;53.206;-6.106;2023-05-19T08:13:07;103029.50;;;19.58;59.96
58690;BME280;44470;53.206;-6.106;2023-05-19T08:15:32;103023.28;;;19.59;59.97
58690;BME280;44470;53.206;-6.106;2023-05-19T08:17:58;103014.31;;;19.54;59.57
58690;BME280;44470;53.206;-6.106;2023-05-19T08:20:23;103015.22;;;19.57;60.27
58690;BME280;44470;53.206;-6.106;2023-05-19T08:22:49;103020.56;;;19.56;60.36
58690;BME280;44470;53.206;-6.106;2023-05-19T08:25:15;103020.56;;;19.57;60.03
58690;BME280;44470;53.206;-6.106;2023-05-19T08:27:40;103025.03;;;19.58;60.16
58690;BME280;44470;53.206;-6.106;2023-05-19T08:30:06;103024.13;;;19.56;60.49
58690;BME280;44470;53.206;-6.106;2023-05-19T08:32:32;103015.19;;;19.53;60.52
58690;BME280;44470;53.206;-6.106;2023-05-19T08:34:58;103012.47;;;19.51;60.33
58690;BME280;44470;53.206;-6.106;2023-05-19T08:37:23;103017.75;;;19.48;60.30
58690;BME280;44470;53.206;-6.106;2023-05-19T08:39:49;103032.19;;;19.59;60.50
58690;BME280;44470;53.206;-6.106;2023-05-19T08:42:15;103032.19;;;19.59;60.25
58690;BME280;44470;53.206;-6.106;2023-05-19T08:44:41;103025.03;;;19.58;60.40
58690;BME280;44470;53.206;-6.106;2023-05-19T08:47:08;103032.19;;;19.59;60.55
58690;BME280;44470;53.206;-6.106;2023-05-19T08:49:42;103026.84;;;19.59;60.63
58690;BME280;44470;53.206;-6.106;2023-05-19T08:57:52;103022.28;;;19.52;60.48
58690;BME280;44470;53.206;-6.106;2023-05-19T09:00:18;103026.78;;;19.56;60.77
58690;BME280;44470;53.206;-6.106;2023-05-19T09:02:47;103026.75;;;19.53;60.65
58690;BME280;44470;53.206;-6.106;2023-05-19T09:05:15;103013.28;;;19.47;60.45
58690;BME280;44470;53.206;-6.106;2023-05-19T09:07:42;103017.84;;;19.54;60.47
58690;BME280;44470;53.206;-6.106;2023-05-19T09:10:08;103000.84;;;19.49;60.46
58690;BME280;44470;53.206;-6.106;2023-05-19T09:12:45;103023.25;;;19.57;60.64
58690;BME280;44470;53.206;-6.106;2023-05-19T09:15:17;103025.91;;;19.57;60.65
58690;BME280;44470;53.206;-6.106;2023-05-19T09:17:46;103019.66;;;19.55;60.48
58690;BME280;44470;53.206;-6.106;2023-05-19T09:20:12;103023.25;;;19.57;60.49
58690;BME280;44470;53.206;-6.106;2023-05-19T09:22:45;103020.53;;;19.54;60.66
58690;BME280;44470;53.206;-6.106;2023-05-19T09:27:47;103019.72;;;19.58;60.49
58690;BME280;44470;53.206;-6.106;2023-05-19T09:30:15;103018.81;;;19.58;60.57
58690;BME280;44470;53.206;-6.106;2023-05-19T09:32:41;103022.38;;;19.58;60.63
58690;BME280;44470;53.206;-6.106;2023-05-19T09:35:07;103013.47;;;19.58;60.87
58690;BME280;44470;53.206;-6.106;2023-05-19T09:37:33;103013.38;;;19.53;60.54
58690;BME280;44470;53.206;-6.106;2023-05-19T09:39:58;103007.22;;;19.56;60.66
58690;BME280;44470;53.206;-6.106;2023-05-19T09:42:25;103003.69;;;19.58;60.79
58690;BME280;44470;53.206;-6.106;2023-05-19T09:45:01;102991.19;;;19.57;60.79
58690;BME280;44470;53.206;-6.106;2023-05-19T09:47:32;102984.94;;;19.55;60.86
58690;BME280;44470;53.206;-6.106;2023-05-19T09:49:57;103003.69;;;19.58;60.63
58690;BME280;44470;53.206;-6.106;2023-05-19T09:52:23;103002.78;;;19.58;60.52
58690;BME280;44470;53.206;-6.106;2023-05-19T09:54:50;102995.66;;;19.58;60.56
58690;BME280;44470;53.206;-6.106;2023-05-19T09:57:16;102981.28;;;19.49;60.56
58690;BME280;44470;53.206;-6.106;2023-05-19T09:59:42;102990.25;;;19.54;60.83
58690;BME280;44470;53.206;-6.106;2023-05-19T10:02:14;102995.66;;;19.57;60.42
58690;BME280;44470;53.206;-6.106;2023-05-19T10:04:41;102998.34;;;19.58;60.79
58690;BME280;44470;53.206;-6.106;2023-05-19T10:07:07;102989.28;;;19.50;60.69
58690;BME280;44470;53.206;-6.106;2023-05-19T10:09:35;103000.13;;;19.59;60.67
58690;BME280;44470;53.206;-6.106;2023-05-19T10:12:02;102994.69;;;19.53;60.96
58690;BME280;44470;53.206;-6.106;2023-05-19T10:14:28;103010.81;;;19.59;61.01
58690;BME280;44470;53.206;-6.106;2023-05-19T10:16:58;103010.81;;;19.58;60.71
58690;BME280;44470;53.206;-6.106;2023-05-19T10:19:28;103011.69;;;19.58;60.91
58690;BME280;44470;53.206;-6.106;2023-05-19T10:21:56;103010.81;;;19.59;60.92
58690;BME280;44470;53.206;-6.106;2023-05-19T10:24:22;103011.69;;;19.57;60.78
58690;BME280;44470;53.206;-6.106;2023-05-19T10:26:54;103014.38;;;19.58;60.63
58690;BME280;44470;53.206;-6.106;2023-05-19T10:29:32;103017.94;;;19.59;61.00
58690;BME280;44470;53.206;-6.106;2023-05-19T10:32:03;103018.84;;;19.59;60.94
58690;BME280;44470;53.206;-6.106;2023-05-19T10:34:54;103025.03;;;19.58;60.69
58690;BME280;44470;53.206;-6.106;2023-05-19T10:39:53;103029.53;;;19.59;60.77
58690;BME280;44470;53.206;-6.106;2023-05-19T10:45:26;103014.31;;;19.55;60.67
58690;BME280;44470;53.206;-6.106;2023-05-19T10:47:54;103028.59;;;19.57;60.72
58690;BME280;44470;53.206;-6.106;2023-05-19T10:50:20;103025.00;;;19.55;61.01
58690;BME280;44470;53.206;-6.106;2023-05-19T10:52:52;103018.81;;;19.58;61.19
58690;BME280;44470;53.206;-6.106;2023-05-19T10:55:43;103017.91;;;19.57;61.11
58690;BME280;44470;53.206;-6.106;2023-05-19T10:58:10;103017.03;;;19.57;60.86
58690;BME280;44470;53.206;-6.106;2023-05-19T11:00:38;103021.50;;;19.58;60.93
58690;BME280;44470;53.206;-6.106;2023-05-19T11:03:17;103005.31;;;19.50;60.93
58690;BME280;44470;53.206;-6.106;2023-05-19T11:05:49;103019.72;;;19.58;61.20
58690;BME280;44470;53.206;-6.106;2023-05-19T11:08:31;103019.66;;;19.55;61.05
58690;BME280;44470;53.206;-6.106;2023-05-19T11:11:14;103018.81;;;19.58;61.01
58690;BME280;44470;53.206;-6.106;2023-05-19T11:13:54;103022.38;;;19.58;61.11
58690;BME280;44470;53.206;-6.106;2023-05-19T11:16:31;103010.66;;;19.50;61.16
58690;BME280;44470;53.206;-6.106;2023-05-19T11:19:00;103025.91;;;19.57;61.25
58690;BME280;44470;53.206;-6.106;2023-05-19T11:21:42;103011.59;;;19.52;61.04
58690;BME280;44470;53.206;-6.106;2023-05-19T11:24:44;103028.59;;;19.57;61.02
58690;BME280;44470;53.206;-6.106;2023-05-19T11:29:47;103025.00;;;19.55;60.73
58690;BME280;44470;53.206;-6.106;2023-05-19T11:32:13;103016.00;;;19.50;60.85
58690;BME280;44470;53.206;-6.106;2023-05-19T11:34:43;103019.59;;;19.52;60.89
58690;BME280;44470;53.206;-6.106;2023-05-19T11:37:12;103032.19;;;19.59;60.99
58690;BME280;44470;53.206;-6.106;2023-05-19T11:39:38;103031.25;;;19.56;60.88
58690;BME280;44470;53.206;-6.106;2023-05-19T11:42:04;103037.47;;;19.56;61.05
58690;BME280;44470;53.206;-6.106;2023-05-19T11:44:30;103033.06;;;19.57;61.21
58690;BME280;44470;53.206;-6.106;2023-05-19T11:46:58;103042.81;;;19.56;61.18
58690;BME280;44470;53.206;-6.106;2023-05-19T11:49:24;103024.94;;;19.52;61.19
58690;BME280;44470;53.206;-6.106;2023-05-19T11:51:52;103034.81;;;19.56;61.20
58690;BME280;44470;53.206;-6.106;2023-05-19T11:54:18;103035.72;;;19.58;61.06
58690;BME280;44470;53.206;-6.106;2023-05-19T11:56:44;103048.22;;;19.58;60.97
58690;BME280;44470;53.206;-6.106;2023-05-19T11:59:10;103041.06;;;19.58;60.77
58690;BME280;44470;53.206;-6.106;2023-05-19T12:01:36;103031.22;;;19.54;61.19
58690;BME280;44470;53.206;-6.106;2023-05-19T12:04:06;103013.31;;;19.49;61.03
58690;BME280;44470;53.206;-6.106;2023-05-19T12:06:32;103036.59;;;19.57;61.06
58690;BME280;44470;53.206;-6.106;2023-05-19T12:08:58;103036.66;;;19.59;60.87
58690;BME280;44470;53.206;-6.106;2023-05-19T12:11:24;103028.59;;;19.57;60.96
58690;BME280;44470;53.206;-6.106;2023-05-19T12:13:58;103022.38;;;19.57;60.91
58690;BME280;44470;53.206;-6.106;2023-05-19T12:16:31;103018.84;;;19.59;60.97
58690;BME280;44470;53.206;-6.106;2023-05-19T12:18:58;103025.97;;;19.59;60.86
58690;BME280;44470;53.206;-6.106;2023-05-19T12:21:23;103029.53;;;19.59;61.02
58690;BME280;44470;53.206;-6.106;2023-05-19T12:24:09;103025.03;;;19.58;60.88
58690;BME280;44470;53.206;-6.106;2023-05-19T12:26:35;103022.31;;;19.55;60.97
58690;BME280;44470;53.206;-6.106;2023-05-19T12:29:04;103026.78;;;19.55;60.81
58690;BME280;44470;53.206;-6.106;2023-05-19T12:31:33;103030.38;;;19.58;61.04
58690;BME280;44470;53.206;-6.106;2023-05-19T12:33:59;103034.84;;;19.58;60.86
58690;BME280;44470;53.206;-6.106;2023-05-19T12:36:26;103025.03;;;19.58;61.11
58690;BME280;44470;53.206;-6.106;2023-05-19T12:38:56;103029.53;;;19.59;61.05
58690;BME280;44470;53.206;-6.106;2023-05-19T12:41:24;103025.03;;;19.58;60.91
58690;BME280;44470;53.206;-6.106;2023-05-19T12:47:38;103016.97;;;19.55;60.94
58690;BME280;44470;53.206;-6.106;2023-05-19T12:50:08;103025.91;;;19.57;61.22
58690;BME280;44470;53.206;-6.106;2023-05-19T12:52:42;103018.72;;;19.53;60.84
58690;BME280;44470;53.206;-6.106;2023-05-19T12:55:09;103012.47;;;19.51;61.04
58690;BME280;44470;53.206;-6.106;2023-05-19T12:57:40;103019.72;;;19.58;61.02
58690;BME280;44470;53.206;-6.106;2023-05-19T13:00:07;103029.53;;;19.59;61.04
58690;BME280;44470;53.206;-6.106;2023-05-19T13:05:29;103034.84;;;19.59;61.00
58690;BME280;44470;53.206;-6.106;2023-05-19T13:08:01;103031.25;;;19.56;60.93
58690;BME280;44470;53.206;-6.106;2023-05-19T13:10:28;103024.94;;;19.52;61.28
58690;BME280;44470;53.206;-6.106;2023-05-19T13:12:54;103032.19;;;19.59;61.04
58690;BME280;44470;53.206;-6.106;2023-05-19T13:15:22;103033.13;;;19.61;61.00
58690;BME280;44470;53.206;-6.106;2023-05-19T13:17:52;103016.94;;;19.52;61.13
58690;BME280;44470;53.206;-6.106;2023-05-19T13:20:22;103021.44;;;19.56;61.42
58690;BME280;44470;53.206;-6.106;2023-05-19T13:22:49;103027.75;;;19.60;61.16
58690;BME280;44470;53.206;-6.106;2023-05-19T13:25:15;103014.31;;;19.55;61.30
58690;BME280;44470;53.206;-6.106;2023-05-19T13:27:43;103025.09;;;19.61;61.28
58690;BME280;44470;53.206;-6.106;2023-05-19T13:30:14;103016.09;;;19.55;61.56
58690;BME280;44470;53.206;-6.106;2023-05-19T13:32:46;103037.63;;;19.63;61.61
58690;BME280;44470;53.206;-6.106;2023-05-19T13:35:15;103026.03;;;19.62;61.50